createdAt,value
2018-07-10T00:02:10.166Z,101462.81
2018-07-10T00:06:55.636Z,101455.96
2018-07-10T00:10:08.312Z,101454.90
2018-07-10T00:12:37.225Z,101458.58
2018-07-10T00:15:06.151Z,101457.42
2018-07-10T00:17:35.036Z,101449.91
2018-07-10T00:20:03.896Z,101451.59
2018-07-10T00:22:32.804Z,101445.92
2018-07-10T00:25:01.704Z,101445.61
2018-07-10T00:27:30.678Z,101444.74
2018-07-10T00:29:59.449Z,101437.27
2018-07-10T00:32:28.453Z,101435.45
2018-07-10T00:34:57.393Z,101431.34
2018-07-10T00:37:26.360Z,101434.61
2018-07-10T00:39:55.343Z,101436.70
2018-07-10T00:42:24.200Z,101441.13
2018-07-10T00:44:53.143Z,101446.83
2018-07-10T00:47:22.085Z,101443.56
2018-07-10T00:49:50.980Z,101436.70
2018-07-10T00:52:29.554Z,101437.02
2018-07-10T00:54:58.758Z,101438.73
2018-07-10T00:57:27.712Z,101438.92
2018-07-10T00:59:56.573Z,101440.63
2018-07-10T01:02:25.598Z,101442.84
2018-07-10T01:04:54.575Z,101433.78
2018-07-10T01:07:23.932Z,101437.89
2018-07-10T01:09:52.929Z,101430.50
2018-07-10T01:12:21.802Z,101429.66
2018-07-10T01:14:50.743Z,101428.60
2018-07-10T01:17:19.896Z,101419.63
2018-07-10T01:19:48.748Z,101417.22
2018-07-10T01:22:17.668Z,101414.67
2018-07-10T01:24:46.599Z,101412.68
2018-07-10T01:27:15.422Z,101408.66
2018-07-10T01:29:49.691Z,101399.56
2018-07-10T01:32:18.644Z,101400.69
2018-07-10T01:34:47.548Z,101395.70
2018-07-10T01:37:16.399Z,101392.22
2018-07-10T01:39:45.305Z,101401.06
2018-07-10T01:42:14.168Z,101394.30
2018-07-10T01:44:43.041Z,101393.33
2018-07-10T01:47:12.024Z,101389.94
2018-07-10T01:49:41.001Z,101385.73
2018-07-10T01:52:09.831Z,101376.42
2018-07-10T01:54:38.832Z,101375.36
2018-07-10T01:57:07.715Z,101369.84
2018-07-10T01:59:36.699Z,101369.58
2018-07-10T02:02:05.494Z,101365.33
2018-07-10T02:04:34.600Z,101371.61
2018-07-10T02:07:03.765Z,101375.58
2018-07-10T02:09:32.606Z,101378.18
2018-07-10T02:12:01.487Z,101374.83
2018-07-10T02:14:30.583Z,101371.81
2018-07-10T02:16:59.495Z,101365.66
2018-07-10T02:19:28.460Z,101373.98
2018-07-10T02:21:57.323Z,101371.86
2018-07-10T02:24:27.200Z,101373.61
2018-07-10T02:26:56.270Z,101371.48
2018-07-10T02:29:25.180Z,101372.79
2018-07-10T02:31:54.078Z,101368.89
2018-07-10T02:34:22.983Z,101370.79
2018-07-10T02:36:51.875Z,101368.52
2018-07-10T02:39:20.812Z,101369.22
2018-07-10T02:41:49.836Z,101367.33
2018-07-10T02:44:18.786Z,101371.81
2018-07-10T02:46:47.664Z,101366.03
2018-07-10T02:49:22.511Z,101364.28
2018-07-10T02:51:54.570Z,101360.00
2018-07-10T02:54:25.791Z,101362.77
2018-07-10T02:56:56.385Z,101362.45
2018-07-10T02:59:35.567Z,101359.72
2018-07-10T03:02:05.782Z,101359.27
2018-07-10T03:04:35.848Z,101359.48
2018-07-10T03:07:05.085Z,101354.98
2018-07-10T03:09:34.494Z,101349.97
2018-07-10T03:12:04.660Z,101350.88
2018-07-10T03:14:33.684Z,101344.63
2018-07-10T03:17:02.962Z,101345.57
2018-07-10T03:19:32.848Z,101347.73
2018-07-10T03:22:02.091Z,101340.09
2018-07-10T03:24:31.225Z,101346.14
2018-07-10T03:27:00.227Z,101342.10
2018-07-10T03:29:29.176Z,101347.30
2018-07-10T03:31:58.189Z,101337.98
2018-07-10T03:34:27.240Z,101338.18
2018-07-10T03:36:56.136Z,101329.64
2018-07-10T03:39:25.097Z,101333.04
2018-07-10T03:41:54.068Z,101326.59
2018-07-10T03:44:23.099Z,101333.77
2018-07-10T03:46:53.142Z,101329.20
2018-07-10T03:49:22.731Z,101331.30
2018-07-10T03:51:53.449Z,101329.26
2018-07-10T03:54:22.576Z,101327.84
2018-07-10T03:56:51.610Z,101330.69
2018-07-10T03:59:20.705Z,101328.19
2018-07-10T04:01:49.591Z,101330.20
2018-07-10T04:04:18.530Z,101332.58
2018-07-10T04:06:47.548Z,101335.39
2018-07-10T04:09:16.548Z,101330.17
2018-07-10T04:11:48.983Z,101328.81
2018-07-10T04:14:20.259Z,101324.84
2018-07-10T04:16:49.161Z,101323.48
2018-07-10T04:19:18.396Z,101323.80
2018-07-10T04:21:55.239Z,101328.10
2018-07-10T04:24:24.420Z,101327.69
2018-07-10T04:27:29.933Z,101334.20
2018-07-10T04:30:06.333Z,101341.72
2018-07-10T04:32:37.244Z,101346.31
2018-07-10T04:35:06.754Z,101340.47
2018-07-10T04:37:36.173Z,101345.02
2018-07-10T04:40:05.557Z,101350.97
2018-07-10T04:42:45.912Z,101341.89
2018-07-10T04:45:16.862Z,101341.98
2018-07-10T04:47:53.581Z,101346.55
2018-07-10T04:50:28.323Z,101350.38
2018-07-10T04:53:07.235Z,101347.38
2018-07-10T04:55:39.793Z,101348.14
2018-07-10T04:58:17.896Z,101340.52
2018-07-10T05:00:50.495Z,101341.91
2018-07-10T05:03:20.585Z,101344.96
2018-07-10T05:05:49.527Z,101343.04
2018-07-10T05:08:20.266Z,101342.52
2018-07-10T05:10:50.153Z,101337.67
2018-07-10T05:13:19.096Z,101333.99
2018-07-10T05:15:53.335Z,101340.22
2018-07-10T05:18:22.338Z,101339.39
2018-07-10T05:20:51.322Z,101333.06
2018-07-10T05:23:20.434Z,101331.28
2018-07-10T05:25:56.377Z,101329.31
2018-07-10T05:28:25.873Z,101327.41
2018-07-10T05:30:58.931Z,101327.63
2018-07-10T05:33:28.201Z,101324.14
2018-07-10T05:35:57.673Z,101312.50
2018-07-10T05:38:34.952Z,101308.02
2018-07-10T05:41:04.202Z,101309.45
2018-07-10T05:43:33.601Z,101314.52
2018-07-10T05:46:02.573Z,101308.00
2018-07-10T05:48:31.483Z,101309.49
2018-07-10T05:51:00.633Z,101307.23
2018-07-10T05:53:29.502Z,101306.08
2018-07-10T05:55:58.692Z,101310.27
2018-07-10T05:58:27.697Z,101307.59
2018-07-10T06:00:56.754Z,101305.73
2018-07-10T06:03:25.631Z,101298.15
2018-07-10T06:05:54.550Z,101304.14
2018-07-10T06:08:23.454Z,101304.66
2018-07-10T06:10:52.518Z,101303.64
2018-07-10T06:13:21.805Z,101306.95
2018-07-10T06:15:50.790Z,101310.81
2018-07-10T06:18:19.796Z,101311.52
2018-07-10T06:20:48.789Z,101310.67
2018-07-10T06:23:20.608Z,101312.97
2018-07-10T06:25:50.218Z,101312.98
2018-07-10T06:28:26.117Z,101317.27
2018-07-10T06:30:55.072Z,101315.37
2018-07-10T06:33:28.029Z,101321.61
2018-07-10T06:36:29.521Z,101322.66
2018-07-10T06:39:16.052Z,101326.22
2018-07-10T06:41:52.459Z,101323.72
2018-07-10T06:44:21.940Z,101325.73
2018-07-10T06:47:10.725Z,101325.64
2018-07-10T06:49:39.833Z,101327.52
2018-07-10T06:52:12.111Z,101329.97
2018-07-10T06:54:49.980Z,101328.25
2018-07-10T06:57:19.039Z,101327.02
2018-07-10T06:59:48.039Z,101328.50
2018-07-10T07:02:16.934Z,101326.77
2018-07-10T07:04:45.897Z,101325.84
2018-07-10T07:07:14.885Z,101329.88
2018-07-10T07:09:43.766Z,101323.61
2018-07-10T07:12:13.394Z,101323.54
2018-07-10T07:14:42.310Z,101324.71
2018-07-10T07:17:11.790Z,101323.45
2018-07-10T07:19:40.692Z,101324.01
2018-07-10T07:22:09.609Z,101313.02
2018-07-10T07:24:38.561Z,101310.09
2018-07-10T07:27:07.562Z,101310.70
2018-07-10T07:29:36.776Z,101310.81
2018-07-10T07:32:05.906Z,101316.20
2018-07-10T07:34:34.850Z,101303.79
2018-07-10T07:37:03.753Z,101311.27
2018-07-10T07:39:33.158Z,101307.25
2018-07-10T07:42:02.360Z,101297.02
2018-07-10T07:44:31.382Z,101302.59
2018-07-10T07:47:00.578Z,101307.19
2018-07-10T07:49:31.145Z,101304.86
2018-07-10T07:52:00.442Z,101305.56
2018-07-10T07:54:29.830Z,101305.05
2018-07-10T07:56:58.961Z,101310.47
2018-07-10T07:59:28.065Z,101302.22
2018-07-10T08:01:57.037Z,101308.66
2018-07-10T08:04:25.978Z,101305.03
2018-07-10T08:06:54.977Z,101304.64
2018-07-10T08:09:23.987Z,101299.45
2018-07-10T08:11:52.985Z,101294.07
2018-07-10T08:14:22.148Z,101301.86
2018-07-10T08:16:51.239Z,101311.53
2018-07-10T08:19:21.377Z,101313.11
2018-07-10T08:21:52.147Z,101311.78
2018-07-10T08:24:23.608Z,101306.17
2018-07-10T08:26:55.535Z,101307.06
2018-07-10T08:29:25.460Z,101309.31
2018-07-10T08:31:55.042Z,101307.69
2018-07-10T08:34:25.397Z,101308.90
2018-07-10T08:36:54.458Z,101306.50
2018-07-10T08:39:23.458Z,101303.78
2018-07-10T08:41:53.109Z,101295.67
2018-07-10T08:44:22.574Z,101293.91
2018-07-10T08:46:56.466Z,101302.16
2018-07-10T08:49:28.807Z,101294.95
2018-07-10T08:51:57.897Z,101293.55
2018-07-10T08:54:26.956Z,101287.12
2018-07-10T08:56:56.069Z,101286.23
2018-07-10T08:59:25.183Z,101290.40
2018-07-10T09:01:54.328Z,101293.95
2018-07-10T09:04:23.385Z,101300.44
2018-07-10T09:06:52.609Z,101299.53
2018-07-10T09:09:21.657Z,101297.03
2018-07-10T09:11:51.183Z,101292.58
2018-07-10T09:14:20.213Z,101294.08
2018-07-10T09:16:49.317Z,101297.98
2018-07-10T09:19:20.236Z,101294.98
2018-07-10T09:21:59.324Z,101290.61
2018-07-10T09:24:28.532Z,101290.33
2018-07-10T09:26:57.628Z,101287.34
2018-07-10T09:29:26.726Z,101292.69
2018-07-10T09:31:56.549Z,101294.86
2018-07-10T09:34:25.656Z,101294.06
2018-07-10T09:36:54.687Z,101287.44
2018-07-10T09:39:23.834Z,101293.66
2018-07-10T09:41:52.968Z,101294.91
2018-07-10T09:44:22.086Z,101292.73
2018-07-10T09:46:51.223Z,101295.91
2018-07-10T09:49:20.319Z,101295.36
2018-07-10T09:51:49.476Z,101305.35
2018-07-10T09:54:18.756Z,101303.26
2018-07-10T09:56:47.692Z,101313.62
2018-07-10T09:59:16.773Z,101315.88
2018-07-10T10:01:45.787Z,101316.80
2018-07-10T10:04:14.836Z,101316.45
2018-07-10T10:06:44.252Z,101318.14
2018-07-10T10:09:13.292Z,101314.72
2018-07-10T10:11:42.388Z,101323.30
2018-07-10T10:14:11.465Z,101318.39
2018-07-10T10:16:41.374Z,101316.27
2018-07-10T10:19:10.780Z,101326.91
2018-07-10T10:21:39.884Z,101319.00
2018-07-10T10:24:09.006Z,101318.91
2018-07-10T10:26:38.064Z,101322.09
2018-07-10T10:29:07.145Z,101321.42
2018-07-10T10:31:36.220Z,101321.28
2018-07-10T10:34:05.260Z,101321.84
2018-07-10T10:36:34.184Z,101320.40
2018-07-10T10:39:03.281Z,101327.16
2018-07-10T10:41:32.351Z,101325.46
2018-07-10T10:44:01.258Z,101330.15
2018-07-10T10:46:30.168Z,101326.39
2018-07-10T10:48:59.231Z,101321.36
2018-07-10T10:51:28.275Z,101325.70
2018-07-10T10:53:57.304Z,101319.05
2018-07-10T10:56:26.357Z,101323.93
2018-07-10T10:58:55.640Z,101320.32
2018-07-10T11:01:25.017Z,101318.94
2018-07-10T11:03:54.081Z,101323.57
2018-07-10T11:06:23.391Z,101322.30
2018-07-10T11:08:52.600Z,101317.91
2018-07-10T11:11:21.657Z,101315.47
2018-07-10T11:13:50.824Z,101318.81
2018-07-10T11:16:19.820Z,101316.98
2018-07-10T11:18:56.640Z,101319.13
2018-07-10T11:22:32.545Z,101320.33
2018-07-10T11:25:05.650Z,101318.58
2018-07-10T11:27:46.277Z,101318.41
2018-07-10T11:30:15.476Z,101313.41
2018-07-10T11:32:44.508Z,101313.92
2018-07-10T11:35:13.557Z,101308.89
2018-07-10T11:37:42.645Z,101305.66
2018-07-10T11:40:11.731Z,101318.17
2018-07-10T11:42:40.786Z,101315.52
2018-07-10T11:45:09.937Z,101313.28
2018-07-10T11:47:38.936Z,101323.20
2018-07-10T11:50:08.028Z,101322.05
2018-07-10T11:52:38.599Z,101337.66
2018-07-10T11:55:08.197Z,101335.52
2018-07-10T11:57:37.242Z,101334.87
2018-07-10T12:00:06.380Z,101333.59
2018-07-10T12:02:44.232Z,101330.62
2018-07-10T12:05:14.521Z,101327.73
2018-07-10T12:07:46.080Z,101333.55
2018-07-10T12:10:23.540Z,101332.13
2018-07-10T12:12:53.228Z,101334.73
2018-07-10T12:15:22.754Z,101332.02
2018-07-10T12:17:55.844Z,101343.95
2018-07-10T12:20:31.349Z,101336.38
2018-07-10T12:23:01.337Z,101343.86
2018-07-10T12:25:36.482Z,101346.30
2018-07-10T12:28:06.444Z,101348.20
2018-07-10T12:30:35.676Z,101353.09
2018-07-10T12:33:05.396Z,101348.34
2018-07-10T12:35:34.476Z,101341.34
2018-07-10T12:38:03.520Z,101350.38
2018-07-10T12:40:32.972Z,101352.28
2018-07-10T12:43:02.009Z,101352.22
2018-07-10T12:45:31.006Z,101360.00
2018-07-10T12:48:00.364Z,101357.33
2018-07-10T12:50:29.519Z,101356.81
2018-07-10T12:52:58.481Z,101357.97
2018-07-10T12:55:27.926Z,101354.38
2018-07-10T12:57:57.359Z,101353.44
2018-07-10T13:00:29.154Z,101356.01
2018-07-10T13:02:58.192Z,101347.14
2018-07-10T13:05:30.163Z,101354.06
2018-07-10T13:07:59.172Z,101349.16
2018-07-10T13:10:28.083Z,101350.58
2018-07-10T13:12:57.041Z,101347.33
2018-07-10T13:15:26.106Z,101345.98
2018-07-10T13:17:57.116Z,101348.98
2018-07-10T13:20:26.059Z,101346.60
2018-07-10T13:22:55.407Z,101349.99
2018-07-10T13:25:24.625Z,101351.37
2018-07-10T13:27:53.519Z,101347.17
2018-07-10T13:30:22.511Z,101352.52
2018-07-10T13:32:51.419Z,101340.17
2018-07-10T13:35:20.514Z,101332.34
2018-07-10T13:37:49.860Z,101345.55
2018-07-10T13:40:18.890Z,101343.42
2018-07-10T13:42:52.502Z,101351.99
2018-07-10T13:45:22.000Z,101353.09
2018-07-10T13:47:51.065Z,101355.34
2018-07-10T13:50:22.113Z,101356.34
2018-07-10T13:52:51.364Z,101358.71
2018-07-10T13:55:20.344Z,101353.65
2018-07-10T13:57:59.292Z,101354.82
2018-07-10T14:00:42.385Z,101356.42
2018-07-10T14:03:11.477Z,101356.69
2018-07-10T14:05:40.816Z,101354.71
2018-07-10T14:08:09.854Z,101356.83
2018-07-10T14:10:39.209Z,101364.30
2018-07-10T14:13:08.180Z,101359.59
2018-07-10T14:15:37.125Z,101353.92
2018-07-10T14:18:06.639Z,101360.47
2018-07-10T14:20:44.465Z,101358.34
2018-07-10T14:23:13.942Z,101360.69
2018-07-10T14:25:43.086Z,101364.98
2018-07-10T14:28:12.492Z,101366.75
2018-07-10T14:30:41.491Z,101365.05
2018-07-10T14:33:10.679Z,101363.61
2018-07-10T14:35:40.774Z,101363.27
2018-07-10T14:38:50.836Z,101366.17
2018-07-10T14:41:57.551Z,101366.72
2018-07-10T14:45:05.482Z,101365.72
2018-07-10T14:51:53.871Z,101367.31
2018-07-10T14:54:57.938Z,101372.48
2018-07-10T14:58:03.898Z,101370.05
2018-07-10T15:00:40.892Z,101369.99
2018-07-10T15:03:11.001Z,101368.59
2018-07-10T15:05:40.193Z,101374.69
2018-07-10T15:08:18.837Z,101375.32
2018-07-10T15:10:47.864Z,101373.53
2018-07-10T15:13:16.919Z,101371.70
2018-07-10T15:15:56.017Z,101371.70
2018-07-10T15:18:30.223Z,101373.15
2018-07-10T15:20:59.213Z,101371.49
2018-07-10T15:23:28.396Z,101368.20
2018-07-10T15:25:57.388Z,101364.56
2018-07-10T15:28:26.429Z,101362.45
2018-07-10T15:30:55.373Z,101362.59
2018-07-10T15:33:25.232Z,101355.12
2018-07-10T15:35:54.183Z,101357.25
2018-07-10T15:38:23.326Z,101355.36
2018-07-10T15:40:52.340Z,101355.78
2018-07-10T15:43:21.515Z,101356.63
2018-07-10T15:45:50.905Z,101349.26
2018-07-10T15:48:19.965Z,101350.60
2018-07-10T15:50:48.984Z,101359.06
2018-07-10T15:53:17.944Z,101358.27
2018-07-10T15:55:46.953Z,101360.71
2018-07-10T15:58:16.050Z,101361.32
2018-07-10T16:00:45.830Z,101353.37
2018-07-10T16:03:15.079Z,101358.13
2018-07-10T16:05:44.559Z,101352.36
2018-07-10T16:08:17.129Z,101356.94
2018-07-10T16:10:49.017Z,101348.59
2018-07-10T16:13:18.639Z,101357.09
2018-07-10T16:15:49.626Z,101355.75
2018-07-10T16:18:18.741Z,101353.41
2018-07-10T16:20:47.751Z,101362.77
2018-07-10T16:23:18.048Z,101353.28
2018-07-10T16:25:48.134Z,101356.06
2018-07-10T16:28:22.101Z,101354.80
2018-07-10T16:30:51.806Z,101353.50
2018-07-10T16:33:35.388Z,101359.42
2018-07-10T16:36:06.648Z,101357.20
2018-07-10T16:38:36.311Z,101360.05
2018-07-10T16:41:11.057Z,101362.77
2018-07-10T16:43:40.132Z,101357.77
2018-07-10T16:46:09.164Z,101359.40
2018-07-10T16:48:43.402Z,101357.59
2018-07-10T16:51:25.307Z,101358.81
2018-07-10T16:53:59.344Z,101366.20
2018-07-10T16:56:28.529Z,101361.50
2018-07-10T16:58:58.415Z,101370.27
2018-07-10T17:01:28.676Z,101368.66
2018-07-10T17:03:59.501Z,101364.73
2018-07-10T17:06:28.566Z,101357.45
2018-07-10T17:08:57.501Z,101360.55
2018-07-10T17:11:26.416Z,101352.84
2018-07-10T17:13:55.329Z,101360.16
2018-07-10T17:16:28.532Z,101359.48
2018-07-10T17:18:58.701Z,101359.95
2018-07-10T17:21:29.125Z,101362.14
2018-07-10T17:24:01.869Z,101364.27
2018-07-10T17:26:30.940Z,101370.02
2018-07-10T17:29:03.519Z,101368.35
2018-07-10T17:31:32.620Z,101368.13
2018-07-10T17:34:01.704Z,101369.91
2018-07-10T17:36:30.703Z,101371.70
2018-07-10T17:39:00.166Z,101371.55
2018-07-10T17:41:32.948Z,101375.23
2018-07-10T17:44:02.477Z,101381.59
2018-07-10T17:46:31.855Z,101377.50
2018-07-10T17:49:01.077Z,101382.59
2018-07-10T17:51:29.992Z,101385.81
2018-07-10T17:53:59.100Z,101379.86
2018-07-10T17:56:28.033Z,101379.30
2018-07-10T17:58:56.948Z,101384.89
2018-07-10T18:01:25.836Z,101380.41
2018-07-10T18:03:54.781Z,101388.20
2018-07-10T18:06:23.719Z,101394.45
2018-07-10T18:08:52.647Z,101391.28
2018-07-10T18:11:21.523Z,101389.22
2018-07-10T18:13:50.469Z,101389.42
2018-07-10T18:16:19.500Z,101393.00
2018-07-10T18:18:49.058Z,101389.14
2018-07-10T18:21:18.019Z,101390.46
2018-07-10T18:23:46.960Z,101399.52
2018-07-10T18:26:15.816Z,101396.33
2018-07-10T18:28:44.821Z,101397.77
2018-07-10T18:31:13.801Z,101400.55
2018-07-10T18:33:42.763Z,101401.41
2018-07-10T18:36:11.734Z,101396.52
2018-07-10T18:38:40.881Z,101400.73
2018-07-10T18:41:09.826Z,101405.75
2018-07-10T18:43:38.805Z,101409.86
2018-07-10T18:46:09.277Z,101408.67
2018-07-10T18:48:38.277Z,101411.30
2018-07-10T18:51:07.406Z,101412.91
2018-07-10T18:53:36.270Z,101410.72
2018-07-10T18:56:05.277Z,101417.30
2018-07-10T18:58:59.893Z,101420.11
2018-07-10T19:01:35.623Z,101422.59
2018-07-10T19:04:05.129Z,101428.55
2018-07-10T19:06:34.121Z,101425.41
2018-07-10T19:09:03.329Z,101425.03
2018-07-10T19:11:32.323Z,101421.19
2018-07-10T19:14:02.470Z,101420.20
2018-07-10T19:16:31.876Z,101424.20
2018-07-10T19:19:03.780Z,101429.80
2018-07-10T19:21:38.316Z,101433.77
2018-07-10T19:24:14.622Z,101431.61
2018-07-10T19:26:43.611Z,101434.42
2018-07-10T19:29:15.963Z,101432.70
2018-07-10T19:31:44.976Z,101435.97
2018-07-10T19:34:14.040Z,101434.36
2018-07-10T19:36:43.080Z,101434.69
2018-07-10T19:39:12.008Z,101428.48
2018-07-10T19:41:41.323Z,101428.11
2018-07-10T19:44:10.472Z,101423.05
2018-07-10T19:46:39.587Z,101421.88
2018-07-10T19:49:08.527Z,101417.98
2018-07-10T19:51:39.714Z,101425.88
2018-07-10T19:54:11.748Z,101424.11
2018-07-10T19:56:40.881Z,101427.55
2018-07-10T19:59:11.995Z,101428.99
2018-07-10T20:01:53.600Z,101433.87
2018-07-10T20:04:58.425Z,101427.09
2018-07-10T20:07:32.905Z,101436.59
2018-07-10T20:11:08.409Z,101436.49
2018-07-10T20:13:46.161Z,101442.30
2018-07-10T20:16:39.294Z,101442.34
2018-07-10T20:19:15.011Z,101441.22
2018-07-10T20:23:54.249Z,101444.94
2018-07-10T20:26:28.599Z,101450.08
2018-07-10T20:29:24.399Z,101453.77
2018-07-10T20:32:02.443Z,101449.17
2018-07-10T20:34:41.779Z,101442.49
2018-07-10T20:37:16.448Z,101447.55
2018-07-10T20:39:45.341Z,101449.91
2018-07-10T20:42:14.467Z,101450.55
2018-07-10T20:44:51.119Z,101459.50
2018-07-10T20:47:20.199Z,101458.66
2018-07-10T20:49:55.198Z,101459.50
2018-07-10T20:52:33.351Z,101456.74
2018-07-10T20:55:07.647Z,101462.59
2018-07-10T20:57:47.899Z,101464.48
2018-07-10T21:00:16.766Z,101463.97
2018-07-10T21:02:53.789Z,101459.83
2018-07-10T21:05:31.816Z,101450.23
2018-07-10T21:08:04.772Z,101453.08
2018-07-10T21:10:55.637Z,101451.40
2018-07-10T21:14:07.708Z,101448.64
2018-07-10T21:16:45.548Z,101452.23
2018-07-10T21:19:23.420Z,101450.23
2018-07-10T21:22:06.672Z,101456.59
2018-07-10T21:24:45.639Z,101456.59
2018-07-10T21:27:23.557Z,101461.05
2018-07-10T21:30:02.060Z,101461.35
2018-07-10T21:32:39.576Z,101466.12
2018-07-10T21:35:10.032Z,101466.12
2018-07-10T21:37:54.498Z,101475.23
2018-07-10T21:40:33.067Z,101471.64
2018-07-10T21:43:12.810Z,101473.52
2018-07-10T21:45:47.913Z,101478.74
2018-07-10T21:48:36.320Z,101482.80
2018-07-10T21:51:05.331Z,101482.50
2018-07-10T21:53:34.432Z,101475.90
2018-07-10T21:56:03.357Z,101473.92
2018-07-10T21:58:32.393Z,101472.75
2018-07-10T22:02:05.004Z,101471.62
2018-07-10T22:04:35.740Z,101479.27
2018-07-10T22:07:13.135Z,101469.02
2018-07-10T22:09:42.876Z,101468.17
2018-07-10T22:12:16.500Z,101476.12
2018-07-10T22:14:45.816Z,101463.95
2018-07-10T22:17:31.640Z,101469.17
2018-07-10T22:20:00.628Z,101475.14
2018-07-10T22:22:31.341Z,101470.07
2018-07-10T22:25:02.645Z,101468.60
2018-07-10T22:27:31.496Z,101469.30
2018-07-10T22:30:06.358Z,101470.28
2018-07-10T22:32:43.469Z,101475.66
2018-07-10T22:35:12.755Z,101463.84
2018-07-10T22:37:41.587Z,101467.59
2018-07-10T22:40:10.911Z,101459.13
2018-07-10T22:42:39.884Z,101454.22
2018-07-10T22:45:08.819Z,101448.55
2018-07-10T22:47:38.056Z,101453.06
2018-07-10T22:50:12.315Z,101449.59
2018-07-10T22:52:53.962Z,101446.67
2018-07-10T22:55:26.832Z,101452.33
2018-07-10T22:57:58.764Z,101448.34
2018-07-10T23:00:30.163Z,101450.67
2018-07-10T23:02:59.480Z,101449.43
2018-07-10T23:05:28.873Z,101442.45
2018-07-10T23:07:57.997Z,101442.19
2018-07-10T23:10:26.892Z,101446.60
2018-07-10T23:12:55.768Z,101446.41
2018-07-10T23:15:24.652Z,101445.70
2018-07-10T23:17:53.532Z,101449.97
2018-07-10T23:20:23.027Z,101454.23
2018-07-10T23:22:56.965Z,101448.33
2018-07-10T23:25:27.245Z,101451.81
2018-07-10T23:28:06.600Z,101451.11
2018-07-10T23:30:38.282Z,101448.49
2018-07-10T23:33:09.681Z,101461.92
2018-07-10T23:35:39.446Z,101467.66
2018-07-10T23:38:16.352Z,101465.64
2018-07-10T23:40:45.266Z,101468.76
2018-07-10T23:43:14.082Z,101462.61
2018-07-10T23:45:43.144Z,101466.13
2018-07-10T23:48:12.072Z,101458.61
2018-07-10T23:50:41.281Z,101454.48
2018-07-10T23:53:21.540Z,101446.66
2018-07-10T23:55:50.423Z,101448.94
2018-07-10T23:58:19.264Z,101449.14
